sensor_id;sensor_type;location;lat;lon;timestamp;P1;durP1;ratioP1;P2;durP2;ratioP2
22525;SDS011;11429;50.842;4.386;2024-02-04T00:01:40;19.60;;;11.80;;
22525;SDS011;11429;50.842;4.386;2024-02-04T00:04:06;14.80;;;11.75;;
22525;SDS011;11429;50.842;4.386;2024-02-04T00:06:32;18.17;;;11.10;;
22525;SDS011;11429;50.842;4.386;2024-02-04T00:08:58;15.23;;;10.90;;
22525;SDS011;11429;50.842;4.386;2024-02-04T00:11:24;16.13;;;10.80;;
22525;SDS011;11429;50.842;4.386;2024-02-04T00:13:49;16.75;;;11.63;;
22525;SDS011;11429;50.842;4.386;2024-02-04T00:16:15;18.50;;;11.95;;
22525;SDS011;11429;50.842;4.386;2024-02-04T00:18:41;17.20;;;10.95;;
22525;SDS011;11429;50.842;4.386;2024-02-04T00:21:07;18.35;;;11.60;;
22525;SDS011;11429;50.842;4.386;2024-02-04T00:23:32;16.33;;;11.68;;
22525;SDS011;11429;50.842;4.386;2024-02-04T00:25:58;16.75;;;10.65;;
22525;SDS011;11429;50.842;4.386;2024-02-04T00:28:24;16.65;;;11.02;;
22525;SDS011;11429;50.842;4.386;2024-02-04T00:30:50;16.08;;;10.98;;
22525;SDS011;11429;50.842;4.386;2024-02-04T00:33:20;15.52;;;9.63;;
22525;SDS011;11429;50.842;4.386;2024-02-04T00:35:46;17.50;;;10.02;;
22525;SDS011;11429;50.842;4.386;2024-02-04T00:38:11;16.92;;;10.63;;
22525;SDS011;11429;50.842;4.386;2024-02-04T00:40:37;14.27;;;10.00;;
22525;SDS011;11429;50.842;4.386;2024-02-04T00:43:03;14.70;;;10.05;;
22525;SDS011;11429;50.842;4.386;2024-02-04T00:45:29;16.83;;;9.65;;
22525;SDS011;11429;50.842;4.386;2024-02-04T00:47:54;13.07;;;9.10;;
22525;SDS011;11429;50.842;4.386;2024-02-04T00:50:20;15.30;;;9.05;;
22525;SDS011;11429;50.842;4.386;2024-02-04T00:52:46;14.68;;;9.10;;
22525;SDS011;11429;50.842;4.386;2024-02-04T00:55:11;15.98;;;9.05;;
22525;SDS011;11429;50.842;4.386;2024-02-04T00:57:37;11.35;;;8.52;;
22525;SDS011;11429;50.842;4.386;2024-02-04T01:00:03;13.43;;;8.80;;
22525;SDS011;11429;50.842;4.386;2024-02-04T01:02:30;13.40;;;8.43;;
22525;SDS011;11429;50.842;4.386;2024-02-04T01:04:55;14.13;;;8.13;;
22525;SDS011;11429;50.842;4.386;2024-02-04T01:07:21;10.38;;;7.93;;
22525;SDS011;11429;50.842;4.386;2024-02-04T01:09:47;18.58;;;9.23;;
22525;SDS011;11429;50.842;4.386;2024-02-04T01:12:13;12.10;;;8.20;;
22525;SDS011;11429;50.842;4.386;2024-02-04T01:14:38;11.77;;;8.05;;
22525;SDS011;11429;50.842;4.386;2024-02-04T01:17:04;9.90;;;7.68;;
22525;SDS011;11429;50.842;4.386;2024-02-04T01:19:30;12.60;;;7.65;;
22525;SDS011;11429;50.842;4.386;2024-02-04T01:21:55;9.30;;;7.32;;
22525;SDS011;11429;50.842;4.386;2024-02-04T01:24:23;11.18;;;7.35;;
22525;SDS011;11429;50.842;4.386;2024-02-04T01:26:50;12.75;;;7.65;;
22525;SDS011;11429;50.842;4.386;2024-02-04T01:29:16;11.25;;;7.30;;
22525;SDS011;11429;50.842;4.386;2024-02-04T01:31:41;8.80;;;6.95;;
22525;SDS011;11429;50.842;4.386;2024-02-04T01:34:07;14.65;;;8.40;;
22525;SDS011;11429;50.842;4.386;2024-02-04T01:36:33;12.20;;;7.47;;
22525;SDS011;11429;50.842;4.386;2024-02-04T01:38:59;14.75;;;7.28;;
22525;SDS011;11429;50.842;4.386;2024-02-04T01:41:24;12.45;;;7.97;;
22525;SDS011;11429;50.842;4.386;2024-02-04T01:43:52;14.55;;;7.63;;
22525;SDS011;11429;50.842;4.386;2024-02-04T01:46:18;12.00;;;8.65;;
22525;SDS011;11429;50.842;4.386;2024-02-04T01:48:44;10.80;;;7.90;;
22525;SDS011;11429;50.842;4.386;2024-02-04T01:51:10;13.63;;;8.73;;
22525;SDS011;11429;50.842;4.386;2024-02-04T01:53:38;14.02;;;8.52;;
22525;SDS011;11429;50.842;4.386;2024-02-04T01:56:09;13.18;;;8.40;;
22525;SDS011;11429;50.842;4.386;2024-02-04T01:58:36;12.70;;;8.27;;
22525;SDS011;11429;50.842;4.386;2024-02-04T02:01:02;16.77;;;8.98;;
22525;SDS011;11429;50.842;4.386;2024-02-04T02:03:28;15.60;;;8.55;;
22525;SDS011;11429;50.842;4.386;2024-02-04T02:05:55;12.60;;;8.52;;
22525;SDS011;11429;50.842;4.386;2024-02-04T02:08:22;14.27;;;8.15;;
22525;SDS011;11429;50.842;4.386;2024-02-04T02:10:48;14.63;;;8.65;;
22525;SDS011;11429;50.842;4.386;2024-02-04T02:15:58;13.25;;;9.02;;
22525;SDS011;11429;50.842;4.386;2024-02-04T02:18:54;15.77;;;9.00;;
22525;SDS011;11429;50.842;4.386;2024-02-04T02:26:47;14.30;;;8.40;;
22525;SDS011;11429;50.842;4.386;2024-02-04T02:29:14;15.07;;;8.75;;
22525;SDS011;11429;50.842;4.386;2024-02-04T02:31:40;15.80;;;8.90;;
22525;SDS011;11429;50.842;4.386;2024-02-04T02:34:08;13.60;;;9.20;;
22525;SDS011;11429;50.842;4.386;2024-02-04T02:36:45;15.32;;;9.95;;
22525;SDS011;11429;50.842;4.386;2024-02-04T02:39:56;21.38;;;9.27;;
22525;SDS011;11429;50.842;4.386;2024-02-04T02:42:28;16.70;;;9.18;;
22525;SDS011;11429;50.842;4.386;2024-02-04T02:44:55;19.30;;;9.82;;
22525;SDS011;11429;50.842;4.386;2024-02-04T02:47:22;16.52;;;9.60;;
22525;SDS011;11429;50.842;4.386;2024-02-04T02:49:52;17.40;;;9.65;;
22525;SDS011;11429;50.842;4.386;2024-02-04T02:52:19;19.33;;;10.27;;
22525;SDS011;11429;50.842;4.386;2024-02-04T02:54:46;16.70;;;10.82;;
22525;SDS011;11429;50.842;4.386;2024-02-04T02:57:11;17.48;;;10.35;;
22525;SDS011;11429;50.842;4.386;2024-02-04T02:59:37;18.60;;;9.88;;
22525;SDS011;11429;50.842;4.386;2024-02-04T03:02:03;21.15;;;10.80;;
22525;SDS011;11429;50.842;4.386;2024-02-04T03:04:29;19.75;;;11.23;;
22525;SDS011;11429;50.842;4.386;2024-02-04T03:06:54;19.52;;;10.35;;
22525;SDS011;11429;50.842;4.386;2024-02-04T03:09:20;18.80;;;11.27;;
22525;SDS011;11429;50.842;4.386;2024-02-04T03:11:46;20.70;;;10.60;;
22525;SDS011;11429;50.842;4.386;2024-02-04T03:14:11;22.30;;;10.30;;
22525;SDS011;11429;50.842;4.386;2024-02-04T03:16:39;25.27;;;10.77;;
22525;SDS011;11429;50.842;4.386;2024-02-04T03:19:05;19.80;;;10.98;;
22525;SDS011;11429;50.842;4.386;2024-02-04T03:21:31;18.30;;;11.23;;
22525;SDS011;11429;50.842;4.386;2024-02-04T03:23:57;20.17;;;10.95;;
22525;SDS011;11429;50.842;4.386;2024-02-04T03:26:23;16.73;;;11.13;;
22525;SDS011;11429;50.842;4.386;2024-02-04T03:28:48;19.27;;;10.63;;
22525;SDS011;11429;50.842;4.386;2024-02-04T03:31:20;23.98;;;11.10;;
22525;SDS011;11429;50.842;4.386;2024-02-04T03:33:47;24.00;;;11.43;;
22525;SDS011;11429;50.842;4.386;2024-02-04T03:36:15;17.92;;;10.98;;
22525;SDS011;11429;50.842;4.386;2024-02-04T03:38:43;17.65;;;10.45;;
22525;SDS011;11429;50.842;4.386;2024-02-04T03:41:09;20.23;;;10.48;;
22525;SDS011;11429;50.842;4.386;2024-02-04T03:43:35;20.10;;;10.07;;
22525;SDS011;11429;50.842;4.386;2024-02-04T03:46:01;18.35;;;10.20;;
22525;SDS011;11429;50.842;4.386;2024-02-04T03:48:27;20.20;;;10.65;;
22525;SDS011;11429;50.842;4.386;2024-02-04T03:50:53;19.05;;;9.73;;
22525;SDS011;11429;50.842;4.386;2024-02-04T03:53:18;16.42;;;9.52;;
22525;SDS011;11429;50.842;4.386;2024-02-04T03:55:46;17.13;;;9.32;;
22525;SDS011;11429;50.842;4.386;2024-02-04T03:58:11;16.77;;;9.48;;
22525;SDS011;11429;50.842;4.386;2024-02-04T04:00:37;17.15;;;9.00;;
22525;SDS011;11429;50.842;4.386;2024-02-04T04:03:03;18.20;;;9.85;;
22525;SDS011;11429;50.842;4.386;2024-02-04T04:05:29;14.65;;;8.95;;
22525;SDS011;11429;50.842;4.386;2024-02-04T04:07:54;18.00;;;9.20;;
22525;SDS011;11429;50.842;4.386;2024-02-04T04:10:20;14.30;;;8.80;;
22525;SDS011;11429;50.842;4.386;2024-02-04T04:12:46;14.82;;;8.80;;
22525;SDS011;11429;50.842;4.386;2024-02-04T04:15:12;17.13;;;9.52;;
22525;SDS011;11429;50.842;4.386;2024-02-04T04:17:37;16.25;;;8.93;;
22525;SDS011;11429;50.842;4.386;2024-02-04T04:20:04;14.30;;;9.05;;
22525;SDS011;11429;50.842;4.386;2024-02-04T04:22:32;15.82;;;9.75;;
22525;SDS011;11429;50.842;4.386;2024-02-04T04:24:57;15.98;;;9.13;;
22525;SDS011;11429;50.842;4.386;2024-02-04T04:27:23;14.52;;;8.30;;
22525;SDS011;11429;50.842;4.386;2024-02-04T04:29:49;13.75;;;8.55;;
22525;SDS011;11429;50.842;4.386;2024-02-04T04:32:14;20.95;;;9.05;;
22525;SDS011;11429;50.842;4.386;2024-02-04T04:34:40;14.48;;;8.80;;
22525;SDS011;11429;50.842;4.386;2024-02-04T04:37:06;13.80;;;8.90;;
22525;SDS011;11429;50.842;4.386;2024-02-04T04:39:32;14.90;;;8.90;;
22525;SDS011;11429;50.842;4.386;2024-02-04T04:41:57;16.33;;;8.93;;
22525;SDS011;11429;50.842;4.386;2024-02-04T04:44:23;15.70;;;8.90;;
22525;SDS011;11429;50.842;4.386;2024-02-04T04:46:49;15.80;;;9.52;;
22525;SDS011;11429;50.842;4.386;2024-02-04T04:49:14;18.13;;;8.90;;
22525;SDS011;11429;50.842;4.386;2024-02-04T04:51:49;17.98;;;9.10;;
22525;SDS011;11429;50.842;4.386;2024-02-04T04:54:15;17.65;;;8.70;;
22525;SDS011;11429;50.842;4.386;2024-02-04T04:56:41;16.80;;;8.88;;
22525;SDS011;11429;50.842;4.386;2024-02-04T04:59:08;17.73;;;9.32;;
22525;SDS011;11429;50.842;4.386;2024-02-04T05:01:33;15.73;;;8.82;;
22525;SDS011;11429;50.842;4.386;2024-02-04T05:03:59;17.85;;;10.27;;
22525;SDS011;11429;50.842;4.386;2024-02-04T05:06:26;16.88;;;8.48;;
22525;SDS011;11429;50.842;4.386;2024-02-04T05:08:52;18.23;;;8.95;;
22525;SDS011;11429;50.842;4.386;2024-02-04T05:11:17;18.98;;;8.77;;
22525;SDS011;11429;50.842;4.386;2024-02-04T05:13:43;17.75;;;8.88;;
22525;SDS011;11429;50.842;4.386;2024-02-04T05:16:09;17.42;;;9.55;;
22525;SDS011;11429;50.842;4.386;2024-02-04T05:18:35;16.23;;;8.32;;
22525;SDS011;11429;50.842;4.386;2024-02-04T05:21:01;15.90;;;8.27;;
22525;SDS011;11429;50.842;4.386;2024-02-04T05:23:28;15.60;;;8.18;;
22525;SDS011;11429;50.842;4.386;2024-02-04T05:25:53;17.08;;;7.88;;
22525;SDS011;11429;50.842;4.386;2024-02-04T05:28:19;15.77;;;7.57;;
22525;SDS011;11429;50.842;4.386;2024-02-04T05:30:45;14.10;;;7.55;;
22525;SDS011;11429;50.842;4.386;2024-02-04T05:33:13;14.45;;;8.32;;
22525;SDS011;11429;50.842;4.386;2024-02-04T05:35:39;18.13;;;8.65;;
22525;SDS011;11429;50.842;4.386;2024-02-04T05:38:07;13.75;;;8.63;;
22525;SDS011;11429;50.842;4.386;2024-02-04T05:40:34;19.55;;;8.65;;
22525;SDS011;11429;50.842;4.386;2024-02-04T05:43:00;16.08;;;8.68;;
22525;SDS011;11429;50.842;4.386;2024-02-04T05:45:30;12.57;;;8.68;;
22525;SDS011;11429;50.842;4.386;2024-02-04T05:47:56;13.95;;;8.82;;
22525;SDS011;11429;50.842;4.386;2024-02-04T05:50:22;19.92;;;9.27;;
22525;SDS011;11429;50.842;4.386;2024-02-04T05:52:48;19.55;;;9.48;;
22525;SDS011;11429;50.842;4.386;2024-02-04T05:55:14;19.00;;;10.00;;
22525;SDS011;11429;50.842;4.386;2024-02-04T05:57:40;19.63;;;10.18;;
22525;SDS011;11429;50.842;4.386;2024-02-04T06:00:06;21.83;;;10.32;;
22525;SDS011;11429;50.842;4.386;2024-02-04T06:02:35;18.50;;;9.98;;
22525;SDS011;11429;50.842;4.386;2024-02-04T06:05:01;21.77;;;10.23;;
22525;SDS011;11429;50.842;4.386;2024-02-04T06:07:27;22.08;;;10.93;;
22525;SDS011;11429;50.842;4.386;2024-02-04T06:09:53;21.67;;;10.30;;
22525;SDS011;11429;50.842;4.386;2024-02-04T06:12:21;22.13;;;10.50;;
22525;SDS011;11429;50.842;4.386;2024-02-04T06:14:47;17.70;;;10.48;;
22525;SDS011;11429;50.842;4.386;2024-02-04T06:17:13;18.73;;;10.15;;
22525;SDS011;11429;50.842;4.386;2024-02-04T06:19:38;21.92;;;11.07;;
22525;SDS011;11429;50.842;4.386;2024-02-04T06:22:04;19.42;;;11.05;;
22525;SDS011;11429;50.842;4.386;2024-02-04T06:24:30;24.35;;;11.75;;
22525;SDS011;11429;50.842;4.386;2024-02-04T06:26:55;20.08;;;10.35;;
22525;SDS011;11429;50.842;4.386;2024-02-04T06:29:21;17.60;;;10.98;;
22525;SDS011;11429;50.842;4.386;2024-02-04T06:31:47;25.42;;;11.90;;
22525;SDS011;11429;50.842;4.386;2024-02-04T06:34:12;22.80;;;10.88;;
22525;SDS011;11429;50.842;4.386;2024-02-04T06:36:41;21.98;;;10.63;;
22525;SDS011;11429;50.842;4.386;2024-02-04T06:39:09;25.42;;;10.60;;
22525;SDS011;11429;50.842;4.386;2024-02-04T06:41:34;22.02;;;10.45;;
22525;SDS011;11429;50.842;4.386;2024-02-04T06:44:01;17.80;;;10.07;;
22525;SDS011;11429;50.842;4.386;2024-02-04T06:46:28;15.43;;;10.40;;
22525;SDS011;11429;50.842;4.386;2024-02-04T06:48:54;21.83;;;10.98;;
22525;SDS011;11429;50.842;4.386;2024-02-04T06:51:20;17.58;;;10.70;;
22525;SDS011;11429;50.842;4.386;2024-02-04T06:53:46;20.30;;;10.25;;
22525;SDS011;11429;50.842;4.386;2024-02-04T06:56:12;18.60;;;11.07;;
22525;SDS011;11429;50.842;4.386;2024-02-04T06:58:38;18.33;;;9.88;;
22525;SDS011;11429;50.842;4.386;2024-02-04T07:01:08;21.40;;;10.43;;
22525;SDS011;11429;50.842;4.386;2024-02-04T07:03:34;17.27;;;10.25;;
22525;SDS011;11429;50.842;4.386;2024-02-04T07:06:00;20.40;;;10.30;;
22525;SDS011;11429;50.842;4.386;2024-02-04T07:08:26;17.15;;;10.25;;
22525;SDS011;11429;50.842;4.386;2024-02-04T07:10:52;19.30;;;10.05;;
22525;SDS011;11429;50.842;4.386;2024-02-04T07:13:19;18.25;;;10.93;;
22525;SDS011;11429;50.842;4.386;2024-02-04T07:15:44;19.98;;;10.63;;
22525;SDS011;11429;50.842;4.386;2024-02-04T07:18:10;19.92;;;10.75;;
22525;SDS011;11429;50.842;4.386;2024-02-04T07:20:36;18.95;;;11.55;;
22525;SDS011;11429;50.842;4.386;2024-02-04T07:23:03;17.48;;;11.02;;
22525;SDS011;11429;50.842;4.386;2024-02-04T07:25:29;18.40;;;11.18;;
22525;SDS011;11429;50.842;4.386;2024-02-04T07:27:55;20.02;;;12.38;;
22525;SDS011;11429;50.842;4.386;2024-02-04T07:30:21;22.73;;;12.27;;
22525;SDS011;11429;50.842;4.386;2024-02-04T07:32:47;22.73;;;11.93;;
22525;SDS011;11429;50.842;4.386;2024-02-04T07:35:13;21.85;;;11.75;;
22525;SDS011;11429;50.842;4.386;2024-02-04T07:37:39;22.92;;;12.13;;
22525;SDS011;11429;50.842;4.386;2024-02-04T07:40:04;24.58;;;12.02;;
22525;SDS011;11429;50.842;4.386;2024-02-04T07:42:31;20.55;;;12.00;;
22525;SDS011;11429;50.842;4.386;2024-02-04T07:44:57;18.83;;;11.18;;
22525;SDS011;11429;50.842;4.386;2024-02-04T07:47:23;18.70;;;11.05;;
22525;SDS011;11429;50.842;4.386;2024-02-04T07:49:49;19.65;;;10.63;;
22525;SDS011;11429;50.842;4.386;2024-02-04T07:52:15;16.15;;;10.25;;
22525;SDS011;11429;50.842;4.386;2024-02-04T07:54:41;17.15;;;11.10;;
22525;SDS011;11429;50.842;4.386;2024-02-04T07:57:08;19.08;;;11.25;;
22525;SDS011;11429;50.842;4.386;2024-02-04T07:59:34;19.65;;;11.80;;
22525;SDS011;11429;50.842;4.386;2024-02-04T08:02:00;15.20;;;10.30;;
22525;SDS011;11429;50.842;4.386;2024-02-04T08:04:26;17.58;;;10.75;;
22525;SDS011;11429;50.842;4.386;2024-02-04T08:06:52;20.40;;;10.80;;
22525;SDS011;11429;50.842;4.386;2024-02-04T08:09:19;16.95;;;10.38;;
22525;SDS011;11429;50.842;4.386;2024-02-04T08:11:45;21.83;;;10.43;;
22525;SDS011;11429;50.842;4.386;2024-02-04T08:14:10;22.73;;;10.68;;
22525;SDS011;11429;50.842;4.386;2024-02-04T08:16:36;15.45;;;10.05;;
22525;SDS011;11429;50.842;4.386;2024-02-04T08:19:02;18.27;;;10.05;;
22525;SDS011;11429;50.842;4.386;2024-02-04T08:21:27;18.80;;;9.73;;
22525;SDS011;11429;50.842;4.386;2024-02-04T08:23:56;19.08;;;10.43;;
22525;SDS011;11429;50.842;4.386;2024-02-04T08:26:22;12.32;;;9.13;;
22525;SDS011;11429;50.842;4.386;2024-02-04T08:28:47;17.77;;;10.40;;
22525;SDS011;11429;50.842;4.386;2024-02-04T08:31:13;17.48;;;8.98;;
22525;SDS011;11429;50.842;4.386;2024-02-04T08:33:39;16.77;;;9.15;;
22525;SDS011;11429;50.842;4.386;2024-02-04T08:36:05;14.95;;;8.32;;
22525;SDS011;11429;50.842;4.386;2024-02-04T08:38:32;14.05;;;8.57;;
22525;SDS011;11429;50.842;4.386;2024-02-04T08:40:57;21.00;;;9.05;;
22525;SDS011;11429;50.842;4.386;2024-02-04T08:43:23;15.60;;;9.07;;
22525;SDS011;11429;50.842;4.386;2024-02-04T08:45:49;15.98;;;9.63;;
22525;SDS011;11429;50.842;4.386;2024-02-04T08:48:14;20.40;;;9.02;;
22525;SDS011;11429;50.842;4.386;2024-02-04T08:50:40;13.43;;;8.57;;
22525;SDS011;11429;50.842;4.386;2024-02-04T08:53:06;14.38;;;8.48;;
22525;SDS011;11429;50.842;4.386;2024-02-04T08:55:32;14.95;;;8.25;;
22525;SDS011;11429;50.842;4.386;2024-02-04T08:57:58;11.88;;;7.35;;
22525;SDS011;11429;50.842;4.386;2024-02-04T09:00:23;10.88;;;7.30;;
22525;SDS011;11429;50.842;4.386;2024-02-04T09:02:49;14.52;;;7.78;;
22525;SDS011;11429;50.842;4.386;2024-02-04T09:05:15;9.75;;;6.60;;
22525;SDS011;11429;50.842;4.386;2024-02-04T09:07:41;12.50;;;6.38;;
22525;SDS011;11429;50.842;4.386;2024-02-04T09:10:07;13.68;;;6.20;;
22525;SDS011;11429;50.842;4.386;2024-02-04T09:12:33;13.13;;;6.38;;
22525;SDS011;11429;50.842;4.386;2024-02-04T09:14:59;10.25;;;5.97;;
22525;SDS011;11429;50.842;4.386;2024-02-04T09:17:24;10.00;;;5.45;;
22525;SDS011;11429;50.842;4.386;2024-02-04T09:19:50;9.45;;;4.95;;
22525;SDS011;11429;50.842;4.386;2024-02-04T09:22:16;8.73;;;5.20;;
22525;SDS011;11429;50.842;4.386;2024-02-04T09:24:42;7.20;;;4.65;;
22525;SDS011;11429;50.842;4.386;2024-02-04T09:27:07;6.85;;;4.43;;
22525;SDS011;11429;50.842;4.386;2024-02-04T09:29:33;7.05;;;4.22;;
22525;SDS011;11429;50.842;4.386;2024-02-04T09:31:59;8.38;;;4.63;;
22525;SDS011;11429;50.842;4.386;2024-02-04T09:34:24;8.82;;;4.20;;
22525;SDS011;11429;50.842;4.386;2024-02-04T09:36:50;8.38;;;4.28;;
22525;SDS011;11429;50.842;4.386;2024-02-04T09:39:18;8.52;;;4.10;;
22525;SDS011;11429;50.842;4.386;2024-02-04T09:41:44;7.40;;;3.80;;
22525;SDS011;11429;50.842;4.386;2024-02-04T09:44:10;7.80;;;3.85;;
22525;SDS011;11429;50.842;4.386;2024-02-04T09:46:37;9.30;;;4.05;;
22525;SDS011;11429;50.842;4.386;2024-02-04T09:49:02;9.82;;;3.95;;
22525;SDS011;11429;50.842;4.386;2024-02-04T09:51:30;6.20;;;3.80;;
22525;SDS011;11429;50.842;4.386;2024-02-04T09:54:00;7.68;;;3.88;;
22525;SDS011;11429;50.842;4.386;2024-02-04T09:56:29;7.93;;;3.75;;
22525;SDS011;11429;50.842;4.386;2024-02-04T09:58:57;7.47;;;4.00;;
22525;SDS011;11429;50.842;4.386;2024-02-04T10:01:23;6.43;;;3.85;;
22525;SDS011;11429;50.842;4.386;2024-02-04T10:03:49;9.00;;;3.80;;
22525;SDS011;11429;50.842;4.386;2024-02-04T10:06:15;7.40;;;3.58;;
22525;SDS011;11429;50.842;4.386;2024-02-04T10:08:41;5.78;;;3.75;;
22525;SDS011;11429;50.842;4.386;2024-02-04T10:11:09;9.10;;;4.45;;
22525;SDS011;11429;50.842;4.386;2024-02-04T10:13:48;8.05;;;4.55;;
22525;SDS011;11429;50.842;4.386;2024-02-04T10:16:17;10.00;;;5.00;;
22525;SDS011;11429;50.842;4.386;2024-02-04T10:18:44;7.30;;;4.70;;
22525;SDS011;11429;50.842;4.386;2024-02-04T10:21:20;9.85;;;4.68;;
22525;SDS011;11429;50.842;4.386;2024-02-04T10:23:47;9.02;;;5.25;;
22525;SDS011;11429;50.842;4.386;2024-02-04T10:26:13;12.43;;;5.50;;
22525;SDS011;11429;50.842;4.386;2024-02-04T10:28:39;6.72;;;4.80;;
22525;SDS011;11429;50.842;4.386;2024-02-04T10:31:08;7.35;;;5.35;;
22525;SDS011;11429;50.842;4.386;2024-02-04T10:33:34;7.20;;;5.00;;
22525;SDS011;11429;50.842;4.386;2024-02-04T10:36:00;9.38;;;5.75;;
22525;SDS011;11429;50.842;4.386;2024-02-04T10:38:26;9.57;;;5.60;;
22525;SDS011;11429;50.842;4.386;2024-02-04T10:40:52;7.82;;;4.80;;
22525;SDS011;11429;50.842;4.386;2024-02-04T10:43:20;9.10;;;5.57;;
22525;SDS011;11429;50.842;4.386;2024-02-04T10:45:47;10.55;;;4.65;;
22525;SDS011;11429;50.842;4.386;2024-02-04T10:48:14;6.50;;;4.40;;
22525;SDS011;11429;50.842;4.386;2024-02-04T10:50:43;8.68;;;4.07;;
22525;SDS011;11429;50.842;4.386;2024-02-04T10:53:11;19.95;;;12.90;;
22525;SDS011;11429;50.842;4.386;2024-02-04T10:55:43;4.90;;;3.53;;
22525;SDS011;11429;50.842;4.386;2024-02-04T10:58:12;9.57;;;3.40;;
22525;SDS011;11429;50.842;4.386;2024-02-04T11:00:41;7.80;;;3.30;;
22525;SDS011;11429;50.842;4.386;2024-02-04T11:03:08;6.22;;;3.25;;
22525;SDS011;11429;50.842;4.386;2024-02-04T11:05:36;5.57;;;3.00;;
22525;SDS011;11429;50.842;4.386;2024-02-04T11:08:03;6.78;;;2.90;;
22525;SDS011;11429;50.842;4.386;2024-02-04T11:10:30;5.05;;;2.80;;
22525;SDS011;11429;50.842;4.386;2024-02-04T11:12:59;8.55;;;2.92;;
22525;SDS011;11429;50.842;4.386;2024-02-04T11:15:28;3.97;;;2.60;;
22525;SDS011;11429;50.842;4.386;2024-02-04T11:26:20;5.38;;;2.38;;
22525;SDS011;11429;50.842;4.386;2024-02-04T11:28:47;4.72;;;2.22;;
22525;SDS011;11429;50.842;4.386;2024-02-04T11:31:19;6.00;;;3.10;;
22525;SDS011;11429;50.842;4.386;2024-02-04T11:33:45;8.07;;;2.60;;
22525;SDS011;11429;50.842;4.386;2024-02-04T11:36:14;4.82;;;2.10;;
22525;SDS011;11429;50.842;4.386;2024-02-04T11:38:43;6.10;;;2.83;;
22525;SDS011;11429;50.842;4.386;2024-02-04T11:41:21;4.13;;;2.38;;
22525;SDS011;11429;50.842;4.386;2024-02-04T11:43:51;5.45;;;2.00;;
22525;SDS011;11429;50.842;4.386;2024-02-04T11:46:18;5.30;;;2.50;;
22525;SDS011;11429;50.842;4.386;2024-02-04T11:48:51;4.43;;;2.17;;
22525;SDS011;11429;50.842;4.386;2024-02-04T11:51:21;6.13;;;2.45;;
22525;SDS011;11429;50.842;4.386;2024-02-04T11:53:50;6.25;;;2.65;;
22525;SDS011;11429;50.842;4.386;2024-02-04T11:56:17;5.15;;;2.30;;
22525;SDS011;11429;50.842;4.386;2024-02-04T11:58:43;7.80;;;2.38;;
22525;SDS011;11429;50.842;4.386;2024-02-04T12:01:10;5.15;;;2.25;;
22525;SDS011;11429;50.842;4.386;2024-02-04T12:03:36;4.35;;;2.70;;
22525;SDS011;11429;50.842;4.386;2024-02-04T12:06:02;5.50;;;2.15;;
22525;SDS011;11429;50.842;4.386;2024-02-04T12:08:32;4.35;;;2.53;;
22525;SDS011;11429;50.842;4.386;2024-02-04T12:11:00;6.15;;;2.60;;
22525;SDS011;11429;50.842;4.386;2024-02-04T12:13:27;6.28;;;2.95;;
22525;SDS011;11429;50.842;4.386;2024-02-04T12:15:54;6.40;;;2.50;;
22525;SDS011;11429;50.842;4.386;2024-02-04T12:18:20;3.30;;;2.45;;
22525;SDS011;11429;50.842;4.386;2024-02-04T12:20:46;4.82;;;2.63;;
22525;SDS011;11429;50.842;4.386;2024-02-04T12:23:16;5.18;;;2.45;;
22525;SDS011;11429;50.842;4.386;2024-02-04T12:25:46;4.90;;;2.58;;
22525;SDS011;11429;50.842;4.386;2024-02-04T12:28:12;4.38;;;2.67;;
22525;SDS011;11429;50.842;4.386;2024-02-04T12:30:39;6.53;;;3.25;;
22525;SDS011;11429;50.842;4.386;2024-02-04T12:33:05;6.10;;;2.50;;
22525;SDS011;11429;50.842;4.386;2024-02-04T12:35:31;6.18;;;2.90;;
22525;SDS011;11429;50.842;4.386;2024-02-04T12:37:58;4.45;;;2.75;;
22525;SDS011;11429;50.842;4.386;2024-02-04T12:40:26;4.43;;;2.50;;
22525;SDS011;11429;50.842;4.386;2024-02-04T12:45:20;4.28;;;2.58;;
22525;SDS011;11429;50.842;4.386;2024-02-04T12:47:50;6.35;;;2.63;;
22525;SDS011;11429;50.842;4.386;2024-02-04T12:50:17;5.95;;;2.90;;
22525;SDS011;11429;50.842;4.386;2024-02-04T12:52:46;6.07;;;3.33;;
22525;SDS011;11429;50.842;4.386;2024-02-04T12:55:23;4.90;;;2.53;;
22525;SDS011;11429;50.842;4.386;2024-02-04T12:57:49;7.05;;;2.75;;
22525;SDS011;11429;50.842;4.386;2024-02-04T13:00:19;3.97;;;2.95;;
22525;SDS011;11429;50.842;4.386;2024-02-04T13:02:49;4.18;;;2.88;;
22525;SDS011;11429;50.842;4.386;2024-02-04T13:05:22;4.75;;;2.90;;
22525;SDS011;11429;50.842;4.386;2024-02-04T13:07:55;5.07;;;2.70;;
22525;SDS011;11429;50.842;4.386;2024-02-04T13:10:25;4.28;;;2.42;;
22525;SDS011;11429;50.842;4.386;2024-02-04T13:13:01;3.85;;;2.38;;
22525;SDS011;11429;50.842;4.386;2024-02-04T13:15:30;4.30;;;2.65;;
22525;SDS011;11429;50.842;4.386;2024-02-04T13:17:57;3.92;;;2.58;;
22525;SDS011;11429;50.842;4.386;2024-02-04T13:20:24;4.60;;;2.28;;
22525;SDS011;11429;50.842;4.386;2024-02-04T13:22:50;4.38;;;2.60;;
22525;SDS011;11429;50.842;4.386;2024-02-04T13:25:19;4.72;;;2.47;;
22525;SDS011;11429;50.842;4.386;2024-02-04T13:27:46;3.90;;;2.50;;
22525;SDS011;11429;50.842;4.386;2024-02-04T13:30:18;4.40;;;2.40;;
22525;SDS011;11429;50.842;4.386;2024-02-04T13:32:44;3.40;;;2.67;;
22525;SDS011;11429;50.842;4.386;2024-02-04T13:35:10;5.65;;;2.53;;
22525;SDS011;11429;50.842;4.386;2024-02-04T13:37:38;3.03;;;2.72;;
22525;SDS011;11429;50.842;4.386;2024-02-04T13:40:05;4.60;;;2.92;;
22525;SDS011;11429;50.842;4.386;2024-02-04T13:42:32;4.28;;;2.33;;
22525;SDS011;11429;50.842;4.386;2024-02-04T13:44:59;5.82;;;2.72;;
22525;SDS011;11429;50.842;4.386;2024-02-04T13:47:26;4.72;;;3.00;;
22525;SDS011;11429;50.842;4.386;2024-02-04T13:49:51;4.45;;;2.65;;
22525;SDS011;11429;50.842;4.386;2024-02-04T13:52:17;5.53;;;3.13;;
22525;SDS011;11429;50.842;4.386;2024-02-04T13:54:43;5.97;;;3.08;;
22525;SDS011;11429;50.842;4.386;2024-02-04T13:57:09;4.75;;;3.03;;
22525;SDS011;11429;50.842;4.386;2024-02-04T13:59:36;7.15;;;3.00;;
22525;SDS011;11429;50.842;4.386;2024-02-04T14:02:01;6.07;;;3.10;;
22525;SDS011;11429;50.842;4.386;2024-02-04T14:04:27;3.65;;;2.70;;
22525;SDS011;11429;50.842;4.386;2024-02-04T14:06:54;7.38;;;3.30;;
22525;SDS011;11429;50.842;4.386;2024-02-04T14:09:20;5.07;;;3.08;;
22525;SDS011;11429;50.842;4.386;2024-02-04T14:11:46;4.00;;;3.17;;
22525;SDS011;11429;50.842;4.386;2024-02-04T14:14:12;7.88;;;3.67;;
22525;SDS011;11429;50.842;4.386;2024-02-04T14:16:37;5.15;;;3.67;;
22525;SDS011;11429;50.842;4.386;2024-02-04T14:19:04;5.95;;;3.70;;
22525;SDS011;11429;50.842;4.386;2024-02-04T14:21:30;6.65;;;3.85;;
22525;SDS011;11429;50.842;4.386;2024-02-04T14:23:55;7.45;;;3.53;;
22525;SDS011;11429;50.842;4.386;2024-02-04T14:26:21;6.63;;;4.28;;
22525;SDS011;11429;50.842;4.386;2024-02-04T14:28:47;6.32;;;3.60;;
22525;SDS011;11429;50.842;4.386;2024-02-04T14:31:13;6.10;;;3.58;;
22525;SDS011;11429;50.842;4.386;2024-02-04T14:33:40;8.45;;;3.58;;
22525;SDS011;11429;50.842;4.386;2024-02-04T14:36:06;9.20;;;3.78;;
22525;SDS011;11429;50.842;4.386;2024-02-04T14:38:32;5.25;;;3.50;;
22525;SDS011;11429;50.842;4.386;2024-02-04T14:40:58;7.10;;;3.30;;
22525;SDS011;11429;50.842;4.386;2024-02-04T14:43:24;7.53;;;3.50;;
22525;SDS011;11429;50.842;4.386;2024-02-04T14:45:50;10.13;;;3.95;;
22525;SDS011;11429;50.842;4.386;2024-02-04T14:48:16;9.23;;;3.15;;
22525;SDS011;11429;50.842;4.386;2024-02-04T14:50:42;6.72;;;3.35;;
22525;SDS011;11429;50.842;4.386;2024-02-04T14:53:08;7.82;;;3.42;;